x

Buoy E01 - Central Maine Shelf (44032) Wave Buoy

5:04pm - Wed 1st Jul 2015 All times are EDT. -4 hours from GMT.

  • Sig Wave height 4.3ft
  • Peak Period 8s
  • Wind
    9mph, 11mph gusts
  • Sea Temp 52°f
  • Air Temp 55°f
  • Sea Pressure 1005.6mb
  • Buoy E01 - Central Maine Shelf
  • Buoy E01 - Central Maine Shelf

More Historic Weather Station data

Upgrade to MSW Pro to gain access to the past 30 days of data for over 8000 Wavebouys and Weather Stations around the globe.

Join Pro

Comparision Forecast

View Surf forecast
   
Wed 07/01 5:04pm 4.5ft 8s 9 11 mph 1005.6mb 52f 55f
4:04pm 3.5ft 8s 16 18 mph 1006.2mb 52f 56f
3:04pm 4ft 8s 16 18 mph 1006.7mb 53f 55f
2:04pm 2.5ft 4s 13 16 mph 1006.8mb 51f 55f
1:04pm 3.5ft 8s 16 18 mph 1007.4mb 50f 55f
12:04pm 3ft 8s 13 16 mph 1008.6mb 52f 55f
11:04am 3ft 8s 7
mph
1011.9mb 52f 55f
10:04am 2.5ft 8s 4 7 mph 1012.7mb 52f 55f
9:04am 3.5ft 8s 7 9 mph 1012.1mb 51f 55f
8:04am 3ft 8s 9 11 mph 1012.1mb 51f 55f
7:04am 2.5ft 8s 9 11 mph 1012mb 51f 55f
6:04am 3ft 8s 7
mph
1012.9mb 53f 55f
5:04am 3.5ft 8s 7
mph
1013.2mb 54f 56f
4:04am 2.5ft 8s 4 7 mph 1013.2mb 54f 55f
3:04am 2.5ft 8s 4 7 mph 1013.5mb 53f 55f
2:04am 2.5ft 8s 7
mph
1013.8mb 53f 56f
1:04am 3ft 8s 7 9 mph 1014.2mb 55f 56f
12:04am 3ft 6s 4 7 mph 1014.3mb 54f 56f
Tue 06/30 11:04pm 3.5ft 8s 7 9 mph 1014.6mb 55f 57f
10:04pm 3.5ft 8s 7
mph
1014.7mb 55f 57f
9:04pm 3.5ft 8s 7
mph
1014.2mb 55f 57f
8:04pm 3.5ft 8s 7 9 mph 1013.7mb 54f 57f
6:04pm 3.5ft 8s 2 4 mph 1014.4mb 52f 58f
5:04pm 4ft 8s 4 7 mph 1014.9mb 53f 58f
4:04pm 4ft 8s 7 9 mph 1015.2mb 53f 58f
3:04pm 3.5ft 8s 4
mph
1015.1mb 55f 58f
2:04pm 3.5ft 8s 7
mph
1015.3mb 55f 58f
1:04pm 4ft 8s 2 4 mph 1015.2mb 54f 57f
12:04pm 4ft 11s 4
mph
1015.2mb 54f 58f
11:04am 4.5ft 8s 4
mph
1015.1mb 53f 58f
10:04am 5ft 11s 2
mph
1014.9mb 51f 57f
9:04am 4.5ft 8s 4
mph
1015.3mb 50f 55f
8:04am 4.5ft 11s 4 9 mph 1014.6mb 51f 55f
7:04am 5.5ft 8s 4 7 mph 1014.1mb 51f 55f
6:04am 6ft 11s 2
mph
1014mb 51f 53f
5:04am 6ft 8s 4 7 mph 1013.5mb 51f 53f
4:04am 5.5ft 11s 4
mph
1013.3mb 51f 53f
3:04am 5ft 8s 2
mph
1012.8mb 51f 54f
2:04am 4.5ft 11s 2
mph
1012.7mb 51f 53f
1:04am 3.5ft 8s 2 4 mph 1012.6mb 51f 54f
12:04am 4ft 11s 2 4 mph 1012.2mb 51f 54f
Mon 06/29 11:04pm 4ft 11s 2 4 mph 1012mb 51f 53f
10:04pm 4ft 11s 4
mph
1011.6mb 51f 54f
9:04pm 5ft 8s 7 9 mph 1011.1mb 51f 54f
8:04pm 5ft 11s 7 9 mph 1010.9mb 51f 54f
7:04pm 6ft 8s 7 9 mph 1010.6mb 51f 55f
6:04pm 7ft 11s 7
mph
1010.5mb 51f 55f
5:04pm 6.5ft 11s 9 11 mph 1010.3mb 51f 54f
4:04pm 7ft 8s 7 9 mph 1010.4mb 51f 54f
3:04pm 6ft 8s 7 11 mph 1010.5mb 51f 54f
2:04pm 5.5ft 8s 7
mph
1010.4mb 51f 53f
1:04pm 5ft 8s 9 11 mph 1010mb 50f 53f
12:04pm 5.5ft 11s 7
mph
1009.7mb 50f 52f
11:04am 5.5ft 11s 7 9 mph 1009.5mb 49f 52f
10:04am 6ft 11s 7 9 mph 1009mb 49f 52f
9:04am 5.5ft 11s 7 9 mph 1009mb 49f 51f
8:04am 7ft 11s 7
mph
1008.8mb 49f 51f
7:04am 8ft 11s 9 13 mph 1008.4mb 49f 51f
6:04am 6ft 11s 7 9 mph 1008.1mb 49f 51f
5:04am 7.5ft 11s 9 13 mph 1007mb 50f 51f
4:04am 7.5ft 11s 7 9 mph 1006.4mb 50f 51f
3:04am 6.5ft 11s 9 13 mph 1005.8mb 50f 51f
2:04am 9ft 11s 13 16 mph 1005.2mb 50f 51f
1:04am 9.5ft 11s 13 18 mph 1005.2mb 50f 51f
12:04am 9ft 8s 13 18 mph 1004.8mb 50f 51f
Sun 06/28 11:04pm 13ft 11s 16 18 mph 1005mb 50f 51f
10:04pm 13ft 11s 18 22 mph 1005.6mb 50f 51f
9:04pm  -   -  22 27 mph 1005.4mb 50f 50f
8:04pm 12.5ft 11s 25 31 mph 1005.6mb 49f 50f
7:04pm 12.5ft 8s 27 34 mph 1006.1mb 50f 50f
6:04pm 13ft 8s 27 36 mph 1006.4mb 50f 50f
5:04pm 10ft 8s 25 29 mph 1008.1mb 51f 50f
4:04pm 10.5ft 8s 34 43 mph 1008.1mb 51f 51f
3:04pm 8ft 8s 29 34 mph 1009.2mb 52f 51f
2:04pm 9ft 8s 29 34 mph 1010.3mb 52f 52f
1:04pm 7.5ft 6s 25 29 mph 1011.4mb 52f 52f
12:04pm 6ft 6s 20 25 mph 1012.7mb 52f 53f
11:04am 4.5ft 6s 22 27 mph 1013.1mb 53f 54f
10:04am 4ft 4s 20 25 mph 1013.8mb 53f 54f
9:04am 2.5ft 3s 18 22 mph 1015.2mb 53f 55f
8:04am 3.5ft 8s 18 22 mph 1015.7mb 53f 55f
7:04am 3.5ft 8s 16 20 mph 1016.1mb 53f 54f
6:04am 3ft 8s 13 16 mph 1016.8mb 53f 54f
5:04am 2.5ft 8s 11 13 mph 1017.2mb 53f 55f
4:04am 2.5ft 8s 11 13 mph 1017.7mb 53f 55f
3:04am 2ft 8s 11 13 mph 1018.4mb 54f 55f
2:04am 1.6ft 8s 9 11 mph 1018.9mb 54f 55f
1:04am 1.6ft 8s 9
mph
1019.7mb 54f 55f
12:04am 1.3ft 8s 7 9 mph 1020.3mb 54f 55f
Sat 06/27 11:04pm 1.3ft 8s 7
mph
1021.2mb 53f 55f